Time;durP1;ratioP1;P1;durP2;ratioP2;P2;SDS_P1;SDS_P2;PMS_P1;PMS_P2;Temp;Humidity;BMP_temperature;BMP_pressure;BME280_temperature;BME280_humidity;BME280_pressure;Samples;Min_cycle;Max_cycle;Signal;HPM_P1;HPM_P2
2022/06/28 00:02:19;;;;;;;1.30;1.00;;;22.60;57.50;;;;;;5087649;27;20582;-48
2022/06/28 00:05:00;;;;;;;1.77;1.13;;;22.60;57.60;;;;;;5050538;27;21072;-48
2022/06/28 00:07:41;;;;;;;1.00;0.90;;;22.50;57.50;;;;;;5124875;27;20537;-49
2022/06/28 00:10:21;;;;;;;1.10;0.97;;;22.60;57.60;;;;;;5087048;27;20583;-48
2022/06/28 00:13:01;;;;;;;1.10;1.00;;;22.60;57.50;;;;;;5084123;27;21046;-48
2022/06/28 00:18:41;;;;;;;1.23;1.00;;;22.60;57.50;;;;;;5064024;27;20602;-48
2022/06/28 00:21:21;;;;;;;1.33;1.23;;;22.50;57.40;;;;;;5080431;28;20579;-48
2022/06/28 00:24:01;;;;;;;1.40;1.20;;;22.50;57.40;;;;;;5075922;27;20598;-49
2022/06/28 00:26:41;;;;;;;2.10;1.10;;;22.50;57.40;;;;;;5087695;28;20637;-48
2022/06/28 00:29:23;;;;;;;1.53;1.13;;;22.50;57.30;;;;;;5097636;27;20621;-49
2022/06/28 00:32:04;;;;;;;1.23;1.13;;;22.50;57.40;;;;;;5073548;27;20543;-48
2022/06/28 00:34:47;;;;;;;2.40;1.10;;;22.50;57.20;;;;;;5035607;27;20614;-48
2022/06/28 00:37:27;;;;;;;2.10;1.23;;;22.50;57.20;;;;;;5099311;27;20576;-47
2022/06/28 00:40:10;;;;;;;1.73;1.00;;;22.40;57.30;;;;;;5053144;27;21120;-48
2022/06/28 00:42:52;;;;;;;1.23;1.13;;;22.50;57.30;;;;;;5084389;28;20632;-49
2022/06/28 00:45:32;;;;;;;1.20;1.10;;;22.40;57.20;;;;;;5077687;28;20961;-48
2022/06/28 00:48:14;;;;;;;1.30;1.00;;;22.50;57.20;;;;;;5083013;28;20529;-48
2022/06/28 00:50:56;;;;;;;1.30;1.20;;;22.50;57.20;;;;;;5083260;28;20583;-48
2022/06/28 00:53:37;;;;;;;1.03;0.93;;;22.40;57.20;;;;;;5112684;27;20766;-49
2022/06/28 00:56:18;;;;;;;1.10;1.00;;;22.50;57.20;;;;;;5079856;27;20618;-47
2022/06/28 00:59:01;;;;;;;2.53;1.80;;;22.50;57.30;;;;;;5069764;28;20545;-49
2022/06/28 01:01:41;;;;;;;0.83;0.80;;;22.50;57.20;;;;;;5127397;27;20586;-48
2022/06/28 01:04:24;;;;;;;1.10;1.00;;;22.50;57.20;;;;;;5030287;28;20540;-47
2022/06/28 01:07:06;;;;;;;1.27;1.10;;;22.40;57.20;;;;;;5080487;27;20614;-48
2022/06/28 01:09:46;;;;;;;1.80;1.20;;;22.40;57.20;;;;;;5036579;28;20551;-47
2022/06/28 01:12:26;;;;;;;2.30;1.27;;;22.40;57.20;;;;;;5108042;27;20527;-48
2022/06/28 01:15:08;;;;;;;2.23;1.43;;;22.40;57.30;;;;;;5060682;27;20622;-48
2022/06/28 01:18:10;;;;;;;2.40;0.93;;;22.40;57.20;;;;;;5097810;27;21092;-48
2022/06/28 01:20:53;;;;;;;1.10;0.90;;;22.40;57.20;;;;;;5124916;27;21103;-48
2022/06/28 01:23:40;;;;;;;1.53;1.43;;;22.40;57.20;;;;;;5092062;27;20591;-48
2022/06/28 01:26:35;;;;;;;1.17;1.07;;;22.40;57.20;;;;;;5128279;27;20570;-49
2022/06/28 01:29:17;;;;;;;1.30;1.10;;;22.40;58.40;;;;;;5042066;27;20467;-48
2022/06/28 01:32:09;;;;;;;2.03;0.90;;;22.40;57.30;;;;;;5128330;27;20924;-47
2022/06/28 01:34:49;;;;;;;2.03;1.23;;;22.40;57.20;;;;;;5097101;27;20552;-48
2022/06/28 01:37:34;;;;;;;1.33;1.20;;;22.40;57.20;;;;;;5121804;27;20576;-48
2022/06/28 01:40:15;;;;;;;1.10;1.00;;;22.40;57.20;;;;;;5107062;27;20576;-47
2022/06/28 01:42:55;;;;;;;1.20;0.90;;;22.30;57.10;;;;;;5122827;27;1214346;-47
2022/06/28 01:45:37;;;;;;;2.90;1.23;;;22.40;57.20;;;;;;5077685;27;20593;-47
2022/06/28 01:48:18;;;;;;;1.53;1.27;;;22.30;57.20;;;;;;5084027;27;20605;-48
2022/06/28 01:51:13;;;;;;;1.00;0.83;;;22.30;57.20;;;;;;5081821;28;20542;-49
2022/06/28 01:53:55;;;;;;;1.50;1.20;;;22.30;57.20;;;;;;5057854;27;20587;-48
2022/06/28 01:56:43;;;;;;;1.03;0.90;;;22.30;57.20;;;;;;5087092;28;20514;-49
2022/06/28 01:59:36;;;;;;;1.37;0.90;;;22.30;57.10;;;;;;5040623;28;20592;-49
2022/06/28 02:02:23;;;;;;;1.80;1.37;;;22.30;57.20;;;;;;5087937;27;20514;-49
2022/06/28 02:05:22;;;;;;;1.60;1.33;;;22.30;57.20;;;;;;5120308;27;20554;-48
2022/06/28 02:08:04;;;;;;;1.23;1.13;;;22.30;57.20;;;;;;5079150;27;20590;-48
2022/06/28 02:10:59;;;;;;;2.03;1.00;;;22.30;57.20;;;;;;5149620;27;20513;-49
2022/06/28 02:13:53;;;;;;;1.50;1.10;;;22.30;57.30;;;;;;5058264;28;21061;-48
2022/06/28 02:16:35;;;;;;;1.33;1.23;;;22.30;57.20;;;;;;5088078;28;21088;-47
2022/06/28 02:19:16;;;;;;;1.80;1.10;;;22.30;57.20;;;;;;5102802;27;20590;-47
2022/06/28 02:21:58;;;;;;;2.20;2.00;;;22.30;57.20;;;;;;5104816;27;20527;-47
2022/06/28 02:24:42;;;;;;;1.03;0.93;;;22.30;57.20;;;;;;5072252;27;20630;-47
2022/06/28 02:27:24;;;;;;;1.47;1.03;;;22.30;57.30;;;;;;5087024;27;20526;-50
2022/06/28 02:30:04;;;;;;;1.37;1.20;;;22.20;57.00;;;;;;5144669;27;20546;-47
2022/06/28 02:32:45;;;;;;;1.13;1.03;;;22.20;57.00;;;;;;5069136;28;20580;-47
2022/06/28 02:41:23;;;;;;;1.50;1.40;;;22.20;57.00;;;;;;5128724;27;20514;-47
2022/06/28 02:44:04;;;;;;;1.30;1.07;;;22.20;57.00;;;;;;5112521;27;20595;-48
2022/06/28 02:46:46;;;;;;;2.63;1.30;;;22.20;57.00;;;;;;5106687;27;21135;-47
2022/06/28 02:49:27;;;;;;;1.03;0.93;;;22.20;57.00;;;;;;5094629;27;21020;-48
2022/06/28 02:52:09;;;;;;;3.03;1.20;;;22.20;57.00;;;;;;5102323;27;20594;-48
2022/06/28 02:54:50;;;;;;;1.17;1.00;;;22.20;57.00;;;;;;5121571;27;20592;-48
2022/06/28 02:57:29;;;;;;;1.77;1.27;;;22.20;57.00;;;;;;5086872;28;20582;-48
2022/06/28 03:00:14;;;;;;;1.17;1.07;;;22.20;57.10;;;;;;5101513;27;20617;-48
2022/06/28 03:02:54;;;;;;;1.00;0.90;;;22.20;57.00;;;;;;5102841;27;20582;-49
2022/06/28 03:05:35;;;;;;;1.33;1.00;;;22.20;57.00;;;;;;5078674;28;20541;-48
2022/06/28 03:08:20;;;;;;;0.90;0.90;;;22.10;56.80;;;;;;5081853;27;21203;-49
2022/06/28 03:11:00;;;;;;;0.80;0.80;;;22.20;57.00;;;;;;5087717;28;20577;-47
2022/06/28 03:13:40;;;;;;;1.07;0.97;;;22.10;56.90;;;;;;5064120;28;21040;-48
2022/06/28 03:16:21;;;;;;;1.83;1.00;;;22.10;57.00;;;;;;5077014;28;20595;-48
2022/06/28 03:19:03;;;;;;;0.90;0.83;;;22.10;56.90;;;;;;5076256;27;20563;-49
2022/06/28 03:21:44;;;;;;;1.17;1.07;;;22.10;56.80;;;;;;5078462;27;20584;-48
2022/06/28 03:24:25;;;;;;;1.20;1.00;;;22.10;56.80;;;;;;5102155;27;21141;-48
2022/06/28 03:27:07;;;;;;;1.53;1.30;;;22.10;56.80;;;;;;5086955;28;20536;-49
2022/06/28 03:29:51;;;;;;;1.30;0.90;;;22.10;56.80;;;;;;5031893;27;20555;-48
2022/06/28 03:32:37;;;;;;;1.63;1.20;;;22.10;56.90;;;;;;5128910;27;20513;-49
2022/06/28 03:35:20;;;;;;;1.10;0.90;;;22.10;56.90;;;;;;5075608;28;20594;-48
2022/06/28 03:38:02;;;;;;;1.30;0.90;;;22.00;56.70;;;;;;5081463;27;20516;-47
2022/06/28 03:41:09;;;;;;;1.90;1.00;;;22.10;56.90;;;;;;5087215;27;20521;-48
2022/06/28 03:43:53;;;;;;;2.60;1.00;;;22.00;56.80;;;;;;5059548;28;20610;-49
2022/06/28 03:46:34;;;;;;;1.33;1.23;;;22.00;56.90;;;;;;5144206;27;21108;-48
2022/06/28 03:49:40;;;;;;;1.23;0.93;;;22.00;56.80;;;;;;5036555;27;20609;-48
2022/06/28 03:52:33;;;;;;;1.23;0.83;;;22.00;56.90;;;;;;5078757;28;20583;-48
2022/06/28 03:55:25;;;;;;;1.23;1.00;;;22.00;56.90;;;;;;5119980;27;20552;-49
2022/06/28 03:58:08;;;;;;;1.20;0.90;;;22.00;56.80;;;;;;5084399;27;20604;-48
2022/06/28 04:00:50;;;;;;;1.20;1.10;;;22.00;56.80;;;;;;5124313;27;20572;-48
2022/06/28 04:03:31;;;;;;;1.17;0.83;;;22.00;56.80;;;;;;5103600;27;21057;-48
2022/06/28 04:06:13;;;;;;;1.63;0.90;;;22.00;56.90;;;;;;5077285;28;20550;-50
2022/06/28 04:08:54;;;;;;;5.53;1.20;;;22.00;56.80;;;;;;5074840;28;20881;-48
2022/06/28 04:11:35;;;;;;;1.23;0.87;;;22.00;56.80;;;;;;5087398;27;20598;-48
2022/06/28 04:14:17;;;;;;;1.00;0.83;;;22.00;56.70;;;;;;5062705;27;20534;-48
2022/06/28 04:16:58;;;;;;;1.20;0.90;;;22.00;56.80;;;;;;5075908;27;20588;-47
2022/06/28 04:19:56;;;;;;;2.87;0.87;;;21.90;56.70;;;;;;5101961;27;20769;-47
2022/06/28 04:22:39;;;;;;;1.53;1.10;;;21.90;56.70;;;;;;5086453;28;20574;-47
2022/06/28 04:25:20;;;;;;;2.73;1.37;;;21.90;56.70;;;;;;5118072;27;20694;-49
2022/06/28 04:28:03;;;;;;;1.10;0.93;;;21.90;56.70;;;;;;5084531;27;21024;-48
2022/06/28 04:30:44;;;;;;;1.20;0.80;;;21.90;56.70;;;;;;5086235;28;20944;-48
2022/06/28 04:33:24;;;;;;;1.57;1.23;;;21.90;56.70;;;;;;5112545;27;20539;-48
2022/06/28 04:36:06;;;;;;;1.33;1.23;;;21.90;56.70;;;;;;5102630;27;20595;-49
2022/06/28 04:38:47;;;;;;;1.30;1.10;;;21.90;56.70;;;;;;5062850;28;20541;-48
2022/06/28 04:41:30;;;;;;;1.67;1.20;;;21.90;56.70;;;;;;5129156;27;20579;-48
2022/06/28 04:44:29;;;;;;;1.57;1.20;;;21.90;56.60;;;;;;5069768;27;20737;-49
2022/06/28 04:47:11;;;;;;;1.60;0.80;;;21.90;56.70;;;;;;5128853;27;20578;-48
2022/06/28 04:49:54;;;;;;;1.23;0.77;;;21.90;56.70;;;;;;5055204;27;20540;-48
2022/06/28 04:52:36;;;;;;;3.57;0.90;;;21.90;56.70;;;;;;5086816;27;20590;-48
2022/06/28 04:55:18;;;;;;;0.93;0.93;;;21.80;56.50;;;;;;5087241;28;21063;-49
2022/06/28 04:58:04;;;;;;;2.23;1.03;;;21.80;56.60;;;;;;5105688;27;20921;-48
2022/06/28 05:00:45;;;;;;;1.20;0.83;;;21.80;56.60;;;;;;5086201;28;20591;-49
2022/06/28 05:03:47;;;;;;;0.90;0.80;;;21.80;56.60;;;;;;5078761;28;20579;-48
2022/06/28 05:06:45;;;;;;;1.67;1.30;;;21.80;56.60;;;;;;5086777;28;20532;-49
2022/06/28 05:09:27;;;;;;;0.97;0.87;;;21.80;56.70;;;;;;5066792;27;20585;-48
2022/06/28 05:12:18;;;;;;;2.90;1.00;;;21.80;56.60;;;;;;5088158;27;20508;-49
2022/06/28 05:15:03;;;;;;;2.37;1.70;;;21.80;56.70;;;;;;5086276;27;20610;-48
2022/06/28 05:18:03;;;;;;;1.77;1.03;;;21.80;56.70;;;;;;5126400;27;20555;-48
2022/06/28 05:20:44;;;;;;;2.00;1.10;;;21.80;56.70;;;;;;5126345;27;20512;-49
2022/06/28 05:23:29;;;;;;;2.10;1.10;;;21.80;56.70;;;;;;5095722;27;20546;-49
2022/06/28 05:26:28;;;;;;;1.03;0.93;;;21.80;56.70;;;;;;5085625;28;20646;-45
2022/06/28 05:29:22;;;;;;;1.70;0.80;;;21.80;56.70;;;;;;5071629;27;20534;-48
2022/06/28 05:32:02;;;;;;;1.00;0.70;;;21.80;57.80;;;;;;5128629;27;20522;-48
2022/06/28 05:34:43;;;;;;;0.93;0.83;;;21.80;56.70;;;;;;5093465;27;20609;-47
2022/06/28 05:37:25;;;;;;;1.87;1.13;;;21.80;56.60;;;;;;5119868;27;20525;-49
2022/06/28 05:40:07;;;;;;;0.97;0.87;;;21.80;56.60;;;;;;5062039;27;20526;-48
2022/06/28 05:42:47;;;;;;;1.20;1.00;;;21.80;56.60;;;;;;5087933;28;20571;-48
2022/06/28 05:45:27;;;;;;;1.33;1.13;;;21.80;56.60;;;;;;5079151;28;20546;-48
2022/06/28 05:48:09;;;;;;;0.90;0.77;;;21.80;56.50;;;;;;5084773;27;20690;-48
2022/06/28 05:50:50;;;;;;;1.27;1.17;;;21.80;56.40;;;;;;5085019;27;20715;-49
2022/06/28 05:53:31;;;;;;;1.27;1.17;;;21.80;56.40;;;;;;5069011;28;21102;-48
2022/06/28 05:56:13;;;;;;;0.80;0.67;;;21.80;56.40;;;;;;5074044;27;20925;-47
2022/06/28 05:58:54;;;;;;;2.03;1.37;;;21.80;56.40;;;;;;5130197;22;20622;-48
2022/06/28 06:01:34;;;;;;;1.30;1.10;;;21.80;56.40;;;;;;5087654;28;21110;-51
2022/06/28 06:04:16;;;;;;;1.30;1.20;;;21.80;56.50;;;;;;5050454;28;20531;-50
2022/06/28 06:06:57;;;;;;;2.13;0.73;;;21.80;56.40;;;;;;5087129;28;20582;-48
2022/06/28 06:09:42;;;;;;;1.10;1.00;;;21.70;56.40;;;;;;5041943;27;20642;-50
2022/06/28 06:12:23;;;;;;;1.27;0.80;;;21.80;56.40;;;;;;5087875;28;20922;-47
2022/06/28 06:15:05;;;;;;;2.30;1.27;;;21.80;56.30;;;;;;5109229;27;20611;-49
2022/06/28 06:17:46;;;;;;;1.00;0.90;;;21.80;56.10;;;;;;5108521;27;20564;-51
2022/06/28 06:20:27;;;;;;;2.07;1.00;;;21.80;56.20;;;;;;5088000;27;20574;-46
2022/06/28 06:23:08;;;;;;;1.10;1.00;;;21.70;56.20;;;;;;5131244;27;1238767;-46
2022/06/28 06:26:12;;;;;;;3.10;1.43;;;21.70;55.90;;;;;;5087643;28;20938;-48
2022/06/28 06:28:54;;;;;;;0.97;0.87;;;21.70;55.60;;;;;;5080364;27;20941;-54
2022/06/28 06:31:35;;;;;;;2.87;1.23;;;21.70;55.90;;;;;;5128841;27;20534;-48
2022/06/28 06:34:36;;;;;;;2.30;1.00;;;21.70;56.00;;;;;;5091636;27;20617;-49
2022/06/28 06:37:19;;;;;;;2.00;1.17;;;21.70;56.10;;;;;;5085635;27;20661;-46
2022/06/28 06:39:59;;;;;;;1.90;1.43;;;21.70;55.60;;;;;;5067787;27;20599;-49
2022/06/28 06:42:40;;;;;;;2.50;1.33;;;21.70;55.40;;;;;;5127968;27;20535;-50
2022/06/28 06:45:27;;;;;;;1.83;1.17;;;21.70;55.30;;;;;;5079291;28;20602;-50
2022/06/28 06:48:08;;;;;;;1.73;1.10;;;21.70;55.30;;;;;;5068041;28;20577;-48
2022/06/28 06:50:49;;;;;;;2.40;1.23;;;21.70;55.70;;;;;;5083865;28;20567;-46
2022/06/28 06:53:31;;;;;;;2.17;1.10;;;21.70;55.70;;;;;;5081516;27;20545;-48
2022/06/28 06:56:12;;;;;;;1.43;0.90;;;21.70;55.80;;;;;;5102145;27;20620;-48
2022/06/28 06:58:52;;;;;;;0.83;0.80;;;21.70;55.60;;;;;;5112378;27;1236366;-49
2022/06/28 07:01:33;;;;;;;1.67;1.00;;;21.70;55.80;;;;;;5080755;28;20878;-46
2022/06/28 07:04:27;;;;;;;1.17;0.90;;;21.70;55.90;;;;;;5075993;27;20597;-47
2022/06/28 07:07:13;;;;;;;1.70;1.00;;;21.70;55.90;;;;;;5079207;27;21112;-48
2022/06/28 07:09:56;;;;;;;1.53;0.93;;;21.70;56.00;;;;;;5073157;27;20537;-49
2022/06/28 07:12:36;;;;;;;3.60;1.07;;;21.70;56.00;;;;;;5128641;27;20844;-45
2022/06/28 07:15:18;;;;;;;0.90;0.60;;;21.70;55.90;;;;;;5094170;27;20708;-48
2022/06/28 07:17:59;;;;;;;1.87;1.20;;;21.70;56.00;;;;;;5085271;28;20570;-47
2022/06/28 07:20:41;;;;;;;1.70;1.20;;;21.70;56.00;;;;;;5106570;27;21131;-50
2022/06/28 07:23:21;;;;;;;2.63;1.00;;;21.70;55.90;;;;;;5126220;27;1449363;-51
2022/06/28 07:26:08;;;;;;;1.00;0.90;;;21.70;55.90;;;;;;5128662;27;20641;-48
2022/06/28 07:28:50;;;;;;;2.03;0.90;;;21.70;55.90;;;;;;5102553;27;20570;-47
2022/06/28 07:31:31;;;;;;;1.33;1.10;;;21.70;55.90;;;;;;5105204;27;20563;-48
2022/06/28 07:34:12;;;;;;;1.73;0.97;;;21.70;55.90;;;;;;5052231;28;20602;-47
2022/06/28 07:36:54;;;;;;;2.50;1.27;;;21.60;55.80;;;;;;5085601;28;20586;-45
2022/06/28 07:39:35;;;;;;;1.67;0.80;;;21.70;55.80;;;;;;5078098;27;20889;-48
2022/06/28 07:42:34;;;;;;;3.70;1.50;;;21.60;55.60;;;;;;5112250;27;20930;-49
2022/06/28 07:45:40;;;;;;;1.40;0.93;;;21.60;55.50;;;;;;5054261;27;20551;-47
2022/06/28 07:48:28;;;;;;;0.97;0.80;;;21.60;55.60;;;;;;5081779;27;20570;-49
2022/06/28 07:54:09;;;;;;;1.13;0.80;;;21.60;55.60;;;;;;5118934;27;20600;-50
2022/06/28 07:57:00;;;;;;;0.90;0.80;;;21.60;55.60;;;;;;5108185;27;20916;-48
2022/06/28 07:59:42;;;;;;;1.63;0.90;;;21.60;55.60;;;;;;5052925;27;20546;-47
2022/06/28 08:02:24;;;;;;;1.77;0.93;;;21.60;55.60;;;;;;5127838;27;20550;-49
2022/06/28 08:05:08;;;;;;;1.43;0.90;;;21.60;55.60;;;;;;5070598;27;20598;-47
2022/06/28 08:07:49;;;;;;;1.00;0.80;;;21.60;55.60;;;;;;5107251;27;20536;-50
2022/06/28 08:10:31;;;;;;;4.23;0.97;;;21.60;55.60;;;;;;5128527;27;20511;-48
2022/06/28 08:13:15;;;;;;;1.13;0.93;;;21.60;55.60;;;;;;5096216;27;20949;-47
2022/06/28 08:15:59;;;;;;;1.37;0.80;;;21.60;55.70;;;;;;5095668;27;20552;-45
2022/06/28 08:18:40;;;;;;;1.97;0.87;;;21.60;55.60;;;;;;5115688;27;20527;-49
2022/06/28 08:21:20;;;;;;;1.40;0.97;;;21.60;55.40;;;;;;5137734;27;1229026;-49
2022/06/28 08:24:01;;;;;;;0.90;0.70;;;21.60;55.60;;;;;;5067612;27;20948;-49
2022/06/28 08:26:43;;;;;;;3.37;1.00;;;21.60;55.60;;;;;;5088018;28;20846;-48
2022/06/28 08:29:24;;;;;;;2.30;1.23;;;21.60;55.70;;;;;;5101073;27;20606;-47
2022/06/28 08:32:06;;;;;;;1.40;0.73;;;21.60;55.70;;;;;;5086577;28;20531;-66
2022/06/28 08:34:47;;;;;;;1.10;0.80;;;21.60;55.60;;;;;;5038971;27;20606;-47
2022/06/28 08:37:28;;;;;;;2.17;1.00;;;21.60;55.60;;;;;;5082337;28;20539;-49
2022/06/28 08:40:11;;;;;;;0.70;0.67;;;21.60;55.50;;;;;;5133552;27;20945;-47
2022/06/28 08:42:56;;;;;;;0.90;0.77;;;21.60;55.60;;;;;;5086979;27;20937;-45
2022/06/28 08:45:40;;;;;;;0.97;0.60;;;21.60;55.60;;;;;;5128879;27;20561;-47
2022/06/28 08:48:26;;;;;;;2.17;0.90;;;21.60;55.60;;;;;;5059815;28;20596;-48
2022/06/28 08:51:09;;;;;;;1.93;0.87;;;21.60;55.60;;;;;;5091097;27;20529;-49
2022/06/28 08:53:50;;;;;;;4.60;1.40;;;21.60;55.60;;;;;;5062583;28;20617;-48
2022/06/28 08:56:31;;;;;;;0.83;0.70;;;21.60;55.60;;;;;;5087182;27;20535;-48
2022/06/28 08:59:11;;;;;;;1.17;0.70;;;21.60;55.60;;;;;;5113441;27;1303726;-49
2022/06/28 09:01:52;;;;;;;1.57;0.70;;;21.60;55.60;;;;;;5106270;27;20534;-48
2022/06/28 09:04:34;;;;;;;2.70;0.97;;;21.60;55.60;;;;;;5057377;27;20580;-47
2022/06/28 09:07:15;;;;;;;1.60;0.60;;;21.50;55.50;;;;;;5079831;28;20565;-48
2022/06/28 09:09:56;;;;;;;1.30;0.97;;;21.60;55.50;;;;;;5053629;27;20538;-47
2022/06/28 09:12:41;;;;;;;1.25;0.90;;;21.60;55.60;;;;;;5133034;27;1208744;-51
2022/06/28 09:15:23;;;;;;;1.53;1.00;;;21.60;55.60;;;;;;5084738;28;21103;-50
2022/06/28 09:18:04;;;;;;;1.93;0.80;;;21.60;55.60;;;;;;5104308;27;20532;-48
2022/06/28 09:20:45;;;;;;;2.27;0.70;;;21.60;55.50;;;;;;5085517;27;20512;-48
2022/06/28 09:23:29;;;;;;;0.83;0.83;;;21.60;55.50;;;;;;5079265;27;21071;-67
2022/06/28 09:26:13;;;;;;;0.97;0.70;;;21.60;55.70;;;;;;5106665;27;20607;-49
2022/06/28 09:28:54;;;;;;;1.60;0.90;;;21.60;55.70;;;;;;5077035;28;20967;-47
2022/06/28 09:31:37;;;;;;;1.30;0.77;;;21.60;55.60;;;;;;5084628;27;20532;-48
2022/06/28 09:34:17;;;;;;;1.20;0.80;;;21.60;55.60;;;;;;5071752;27;20820;-48
2022/06/28 09:36:58;;;;;;;0.93;0.80;;;21.60;55.60;;;;;;5122233;27;20590;-46
2022/06/28 09:39:47;;;;;;;3.67;0.60;;;21.60;55.60;;;;;;5043064;28;21043;-47
2022/06/28 09:42:27;;;;;;;1.00;0.90;;;21.60;55.60;;;;;;5088541;28;20562;-48
2022/06/28 09:45:10;;;;;;;0.90;0.67;;;21.60;55.60;;;;;;5087070;27;20551;-53
2022/06/28 09:47:52;;;;;;;1.43;0.70;;;21.60;55.70;;;;;;5087137;27;20564;-47
2022/06/28 09:50:44;;;;;;;1.17;0.90;;;21.60;55.70;;;;;;5086884;27;20537;-46
2022/06/28 09:53:28;;;;;;;1.87;0.80;;;21.60;55.70;;;;;;5073047;28;20595;-49
2022/06/28 09:56:09;;;;;;;0.80;0.70;;;21.60;55.70;;;;;;5147295;27;1311745;-50
2022/06/28 09:58:50;;;;;;;1.50;0.70;;;21.60;55.60;;;;;;5070886;27;20592;-47
2022/06/28 10:01:32;;;;;;;1.23;0.80;;;21.60;55.60;;;;;;5081613;28;20598;-47
2022/06/28 10:04:14;;;;;;;0.90;0.57;;;21.60;55.60;;;;;;5136779;27;20532;-51
2022/06/28 10:06:55;;;;;;;1.23;0.83;;;21.60;55.70;;;;;;5079061;27;20593;-48
2022/06/28 10:09:37;;;;;;;1.10;0.60;;;21.60;55.80;;;;;;5043108;27;21141;-48
2022/06/28 10:15:20;;;;;;;1.33;0.90;;;21.60;55.70;;;;;;5102590;27;20539;-48
2022/06/28 10:18:04;;;;;;;1.40;0.90;;;21.60;55.60;;;;;;5125487;27;20937;-47
2022/06/28 10:20:46;;;;;;;1.33;0.70;;;21.60;55.50;;;;;;5127975;27;20555;-49
2022/06/28 10:23:29;;;;;;;0.90;0.77;;;21.60;55.60;;;;;;5073422;28;20531;-45
2022/06/28 10:26:18;;;;;;;1.97;0.90;;;21.60;55.60;;;;;;5128260;27;20558;-48
2022/06/28 10:29:04;;;;;;;1.10;0.73;;;21.60;55.60;;;;;;5120235;27;20601;-46
2022/06/28 10:31:45;;;;;;;0.80;0.60;;;21.60;55.60;;;;;;5086475;27;20543;-51
2022/06/28 10:34:51;;;;;;;1.00;0.70;;;21.60;55.50;;;;;;5065366;28;20608;-47
2022/06/28 10:37:32;;;;;;;1.20;0.80;;;21.60;55.50;;;;;;5078761;28;20585;-48
2022/06/28 10:40:32;;;;;;;1.37;0.83;;;21.60;55.60;;;;;;5087526;27;20602;-49
2022/06/28 10:43:13;;;;;;;0.80;0.70;;;21.60;55.40;;;;;;5075241;27;20569;-48
2022/06/28 10:46:09;;;;;;;1.30;0.70;;;21.60;55.60;;;;;;5066966;27;20607;-48
2022/06/28 10:49:08;;;;;;;1.60;1.10;;;21.60;55.50;;;;;;5124471;27;20539;-49
2022/06/28 10:52:13;;;;;;;1.03;0.80;;;21.60;55.40;;;;;;5086965;28;20540;-46
2022/06/28 10:55:28;;;;;;;0.80;0.70;;;21.70;55.50;;;;;;5073265;27;20590;-52
2022/06/28 10:58:12;;;;;;;1.53;0.70;;;21.60;55.50;;;;;;5079881;27;21118;-48
2022/06/28 11:00:54;;;;;;;1.70;1.27;;;21.70;55.60;;;;;;5104789;27;20545;-49
2022/06/28 11:04:08;;;;;;;0.90;0.70;;;21.70;55.40;;;;;;5068523;27;20666;-47
2022/06/28 11:06:51;;;;;;;2.57;1.03;;;21.70;55.50;;;;;;5060349;28;20597;-48
2022/06/28 11:09:51;;;;;;;1.63;0.90;;;21.70;55.50;;;;;;5127492;27;20536;-47
2022/06/28 11:12:39;;;;;;;2.70;0.80;;;21.70;55.40;;;;;;5004995;27;21120;-47
2022/06/28 11:15:35;;;;;;;1.37;0.70;;;21.70;55.40;;;;;;5125013;27;20590;-50
2022/06/28 11:18:17;;;;;;;1.23;0.80;;;21.70;55.40;;;;;;5120715;27;20601;-46
2022/06/28 11:20:58;;;;;;;1.07;0.90;;;21.70;55.30;;;;;;5085120;27;20539;-47
2022/06/28 11:23:40;;;;;;;0.97;0.70;;;21.70;55.30;;;;;;5067524;27;20610;-48
2022/06/28 11:29:20;;;;;;;2.03;0.83;;;21.70;55.10;;;;;;5103263;27;20608;-49
2022/06/28 11:32:01;;;;;;;0.90;0.60;;;21.70;55.10;;;;;;5095778;27;21042;-49
2022/06/28 11:34:42;;;;;;;0.90;0.80;;;21.70;55.00;;;;;;5039850;28;20408;-47
2022/06/28 11:37:23;;;;;;;1.43;0.93;;;21.70;55.00;;;;;;5119618;27;21002;-47
2022/06/28 11:40:07;;;;;;;1.63;0.70;;;21.80;55.00;;;;;;5070802;27;20602;-48
2022/06/28 11:42:59;;;;;;;1.10;0.63;;;21.70;54.90;;;;;;5088136;28;20927;-47
2022/06/28 11:45:44;;;;;;;0.90;0.60;;;21.80;55.00;;;;;;5076365;27;21069;-50
2022/06/28 11:48:31;;;;;;;1.57;0.90;;;21.80;55.10;;;;;;5125711;27;1240357;-46
2022/06/28 11:51:11;;;;;;;1.33;0.70;;;21.80;55.10;;;;;;5082400;28;21074;-48
2022/06/28 11:53:52;;;;;;;1.20;0.90;;;21.80;55.00;;;;;;5103010;27;20593;-51
2022/06/28 11:56:45;;;;;;;1.07;0.87;;;21.80;55.00;;;;;;5115644;27;20520;-48
2022/06/28 11:59:53;;;;;;;1.57;1.00;;;21.80;54.90;;;;;;5101929;27;20629;-47
2022/06/28 12:02:42;;;;;;;1.83;0.93;;;21.80;54.80;;;;;;5093451;27;20987;-46
2022/06/28 12:05:34;;;;;;;1.13;0.90;;;21.80;54.80;;;;;;5117720;27;20957;-48
2022/06/28 12:08:39;;;;;;;1.30;0.73;;;21.90;54.80;;;;;;5084786;27;21115;-47
2022/06/28 12:11:32;;;;;;;1.10;0.90;;;21.80;54.80;;;;;;5071386;27;20523;-48
2022/06/28 12:14:16;;;;;;;1.10;0.70;;;21.90;54.80;;;;;;5069619;28;20614;-48
2022/06/28 12:17:01;;;;;;;2.57;0.97;;;21.90;54.60;;;;;;5073288;28;20622;-49
2022/06/28 12:19:43;;;;;;;1.00;0.70;;;21.90;54.70;;;;;;5096818;27;21110;-48
2022/06/28 12:22:25;;;;;;;0.80;0.70;;;21.90;54.80;;;;;;5104714;27;20535;-49
2022/06/28 12:25:11;;;;;;;1.07;0.80;;;21.90;54.60;;;;;;5066297;27;20616;-49
2022/06/28 12:27:52;;;;;;;1.23;1.00;;;21.90;54.60;;;;;;5087335;27;20567;-49
2022/06/28 12:30:33;;;;;;;4.20;1.10;;;21.90;54.50;;;;;;5124755;27;20595;-52
2022/06/28 12:33:15;;;;;;;2.50;1.07;;;22.00;53.70;;;;;;5080729;27;20540;-48
2022/06/28 12:35:56;;;;;;;2.00;0.70;;;22.00;54.00;;;;;;5068462;27;20576;-48
2022/06/28 12:38:37;;;;;;;2.90;1.40;;;22.00;54.20;;;;;;5071825;27;20553;-50
2022/06/28 12:41:17;;;;;;;2.60;1.43;;;22.00;54.20;;;;;;5148968;27;20567;-51
2022/06/28 12:43:58;;;;;;;2.07;1.60;;;22.00;54.30;;;;;;5098151;27;20602;-49
2022/06/28 12:46:44;;;;;;;1.23;0.73;;;22.00;54.20;;;;;;5110362;27;20594;-51
2022/06/28 12:49:25;;;;;;;1.00;0.90;;;22.00;54.30;;;;;;5081923;27;21049;-49
2022/06/28 12:52:07;;;;;;;3.10;1.00;;;22.00;54.40;;;;;;5134257;27;20584;-49
2022/06/28 12:54:48;;;;;;;1.10;1.00;;;22.00;54.50;;;;;;5077209;27;20641;-52
2022/06/28 12:57:29;;;;;;;1.07;0.87;;;22.00;54.40;;;;;;5107131;27;20586;-49
2022/06/28 13:00:13;;;;;;;2.20;0.87;;;22.00;54.30;;;;;;5068063;28;20546;-50
2022/06/28 13:02:54;;;;;;;3.10;0.90;;;22.00;54.30;;;;;;5090582;28;20533;-49
2022/06/28 13:05:35;;;;;;;1.57;0.80;;;22.00;54.30;;;;;;5077743;28;20552;-51
2022/06/28 13:08:16;;;;;;;2.90;1.20;;;22.00;54.30;;;;;;5102785;27;20502;-48
2022/06/28 13:10:57;;;;;;;2.43;0.90;;;22.10;54.00;;;;;;5075697;28;20526;-50
2022/06/28 13:13:37;;;;;;;3.10;1.00;;;22.10;53.70;;;;;;5077563;27;21048;-49
2022/06/28 13:16:19;;;;;;;2.17;1.07;;;22.10;53.90;;;;;;5076959;28;20664;-49
2022/06/28 13:19:00;;;;;;;1.07;0.80;;;22.10;54.00;;;;;;5068313;28;20694;-50
2022/06/28 13:21:47;;;;;;;1.90;0.70;;;22.10;54.00;;;;;;5096392;27;20559;-49
2022/06/28 13:24:28;;;;;;;1.83;1.10;;;22.10;54.00;;;;;;5051979;27;22568;-49
2022/06/28 13:27:10;;;;;;;2.07;0.70;;;22.10;53.90;;;;;;5088144;27;20559;-48
2022/06/28 13:29:51;;;;;;;1.47;1.10;;;22.10;53.90;;;;;;5070754;27;20595;-49
2022/06/28 13:32:34;;;;;;;1.43;1.00;;;22.10;53.80;;;;;;5127108;27;20671;-51
2022/06/28 13:35:15;;;;;;;0.90;0.77;;;22.10;53.90;;;;;;5078152;27;20685;-49
2022/06/28 13:37:57;;;;;;;1.37;1.13;;;22.10;53.80;;;;;;5079931;27;20550;-51
2022/06/28 13:40:39;;;;;;;1.23;0.87;;;22.10;53.70;;;;;;5107361;27;20533;-51
2022/06/28 13:46:15;;;;;;;1.40;1.00;;;22.20;53.70;;;;;;5120000;27;20566;-46
2022/06/28 13:48:56;;;;;;;2.73;1.00;;;22.20;53.90;;;;;;5100876;27;20594;-52
2022/06/28 13:51:38;;;;;;;2.00;0.97;;;22.20;53.90;;;;;;5083091;28;20530;-49
2022/06/28 13:54:19;;;;;;;1.30;0.80;;;22.20;53.80;;;;;;5053047;27;20968;-48
2022/06/28 13:57:07;;;;;;;1.57;0.90;;;22.20;53.80;;;;;;5086626;28;20573;-50
2022/06/28 13:59:51;;;;;;;2.37;0.80;;;22.20;53.80;;;;;;5035460;27;20673;-50
2022/06/28 14:02:33;;;;;;;1.57;1.07;;;22.20;53.90;;;;;;5076818;28;20524;-49
2022/06/28 14:05:14;;;;;;;1.30;1.00;;;22.20;53.60;;;;;;5071040;27;20550;-50
2022/06/28 14:07:56;;;;;;;0.80;0.73;;;22.20;53.70;;;;;;5077264;28;20557;-49
2022/06/28 14:10:37;;;;;;;1.43;0.90;;;22.30;53.70;;;;;;5087219;27;20878;-49
2022/06/28 14:13:19;;;;;;;1.30;0.80;;;22.30;52.90;;;;;;5084698;27;20575;-50
2022/06/28 14:16:01;;;;;;;4.00;1.03;;;22.30;53.70;;;;;;5084921;28;20554;-48
2022/06/28 14:18:41;;;;;;;2.13;1.10;;;22.30;53.80;;;;;;5073763;28;20608;-48
2022/06/28 14:21:23;;;;;;;1.27;1.00;;;22.30;53.70;;;;;;5123043;27;20938;-51
2022/06/28 14:24:04;;;;;;;1.20;0.70;;;22.30;53.70;;;;;;5096994;27;20533;-48
2022/06/28 14:26:46;;;;;;;1.63;1.00;;;22.30;53.70;;;;;;5087540;28;20932;-47
2022/06/28 14:29:31;;;;;;;1.40;0.80;;;22.30;53.70;;;;;;5105891;27;20599;-52
2022/06/28 14:32:12;;;;;;;1.00;0.90;;;22.40;53.80;;;;;;5114127;27;20923;-50
2022/06/28 14:34:53;;;;;;;1.03;0.90;;;22.40;53.60;;;;;;5106209;27;20963;-51